Adak, Alaska
Current Conditions -  °F | °C
As of 9:56 AM on Sunday 23 Nov 2014 (Local Time) from PADK Reporting Station
Broken Clouds Broken Clouds  
Wind Chill: 29°   Ceiling: 4500
Heat Index: 37°   Visibility: 10mi
Dew Point: 25°   Wind: 13mph
Humidity: 60%   Direction: 280°W
Pressure: 29.83"   Gusts: 24mph
Location:  51.88°N, 176.66°W
Report Text: PADK 231956Z AUTO 28011G21KT 10SM FEW029 SCT035 BKN045 03/M04 A2983 RMK AO1
Loading
Personal Weather Stations






























Interactive Weather Map New forecast layout! Learn more

10-Day Weather Forecast

Advertisements
Track Severe Weather on mobile